sensor_id;sensor_type;location;lat;lon;timestamp;P1;durP1;ratioP1;P2;durP2;ratioP2
64959;SDS011;51487;52.266;10.542;2023-04-25T00:01:14;7.60;;;3.47;;
64959;SDS011;51487;52.266;10.542;2023-04-25T00:03:40;9.88;;;3.70;;
64959;SDS011;51487;52.266;10.542;2023-04-25T00:06:06;10.63;;;3.72;;
64959;SDS011;51487;52.266;10.542;2023-04-25T00:08:32;6.82;;;3.35;;
64959;SDS011;51487;52.266;10.542;2023-04-25T00:10:58;10.55;;;3.30;;
64959;SDS011;51487;52.266;10.542;2023-04-25T00:13:24;10.43;;;3.70;;
64959;SDS011;51487;52.266;10.542;2023-04-25T00:15:51;6.43;;;3.20;;
64959;SDS011;51487;52.266;10.542;2023-04-25T00:18:18;7.53;;;3.72;;
64959;SDS011;51487;52.266;10.542;2023-04-25T00:20:46;10.52;;;3.53;;
64959;SDS011;51487;52.266;10.542;2023-04-25T00:23:13;11.98;;;4.13;;
64959;SDS011;51487;52.266;10.542;2023-04-25T00:25:46;10.10;;;4.32;;
64959;SDS011;51487;52.266;10.542;2023-04-25T00:28:13;9.50;;;4.20;;
64959;SDS011;51487;52.266;10.542;2023-04-25T00:30:40;9.25;;;3.67;;
64959;SDS011;51487;52.266;10.542;2023-04-25T00:33:06;9.98;;;3.47;;
64959;SDS011;51487;52.266;10.542;2023-04-25T00:35:33;10.02;;;4.05;;
64959;SDS011;51487;52.266;10.542;2023-04-25T00:37:59;12.85;;;3.63;;
64959;SDS011;51487;52.266;10.542;2023-04-25T00:40:25;9.80;;;3.70;;
64959;SDS011;51487;52.266;10.542;2023-04-25T00:42:51;9.68;;;3.67;;
64959;SDS011;51487;52.266;10.542;2023-04-25T00:45:18;7.85;;;3.70;;
64959;SDS011;51487;52.266;10.542;2023-04-25T00:47:44;7.03;;;2.88;;
64959;SDS011;51487;52.266;10.542;2023-04-25T00:50:10;7.53;;;3.88;;
64959;SDS011;51487;52.266;10.542;2023-04-25T00:52:37;10.75;;;4.15;;
64959;SDS011;51487;52.266;10.542;2023-04-25T00:55:05;8.60;;;4.13;;
64959;SDS011;51487;52.266;10.542;2023-04-25T00:57:32;15.85;;;3.85;;
64959;SDS011;51487;52.266;10.542;2023-04-25T00:59:58;12.48;;;3.60;;
64959;SDS011;51487;52.266;10.542;2023-04-25T01:02:24;8.38;;;3.90;;
64959;SDS011;51487;52.266;10.542;2023-04-25T01:04:52;10.60;;;3.80;;
64959;SDS011;51487;52.266;10.542;2023-04-25T01:07:18;12.38;;;3.95;;
64959;SDS011;51487;52.266;10.542;2023-04-25T01:09:44;9.70;;;3.70;;
64959;SDS011;51487;52.266;10.542;2023-04-25T01:12:11;9.85;;;3.80;;
64959;SDS011;51487;52.266;10.542;2023-04-25T01:14:37;8.25;;;3.45;;
64959;SDS011;51487;52.266;10.542;2023-04-25T01:17:03;11.57;;;3.88;;
64959;SDS011;51487;52.266;10.542;2023-04-25T01:19:30;9.20;;;4.05;;
64959;SDS011;51487;52.266;10.542;2023-04-25T01:21:56;11.73;;;4.05;;
64959;SDS011;51487;52.266;10.542;2023-04-25T01:24:22;6.18;;;3.40;;
64959;SDS011;51487;52.266;10.542;2023-04-25T01:26:47;9.02;;;3.70;;
64959;SDS011;51487;52.266;10.542;2023-04-25T01:29:17;10.38;;;4.35;;
64959;SDS011;51487;52.266;10.542;2023-04-25T01:31:44;8.05;;;4.13;;
64959;SDS011;51487;52.266;10.542;2023-04-25T01:34:14;10.68;;;4.00;;
64959;SDS011;51487;52.266;10.542;2023-04-25T01:36:40;10.13;;;4.28;;
64959;SDS011;51487;52.266;10.542;2023-04-25T01:39:05;7.82;;;3.75;;
64959;SDS011;51487;52.266;10.542;2023-04-25T01:41:32;9.63;;;4.18;;
64959;SDS011;51487;52.266;10.542;2023-04-25T01:43:59;8.50;;;3.83;;
64959;SDS011;51487;52.266;10.542;2023-04-25T01:46:26;7.15;;;3.60;;
64959;SDS011;51487;52.266;10.542;2023-04-25T01:48:52;9.25;;;3.90;;
64959;SDS011;51487;52.266;10.542;2023-04-25T01:51:18;9.98;;;4.75;;
64959;SDS011;51487;52.266;10.542;2023-04-25T01:53:44;7.50;;;4.13;;
64959;SDS011;51487;52.266;10.542;2023-04-25T01:56:10;10.57;;;4.05;;
64959;SDS011;51487;52.266;10.542;2023-04-25T01:58:35;13.18;;;4.78;;
64959;SDS011;51487;52.266;10.542;2023-04-25T02:01:01;10.93;;;4.28;;
64959;SDS011;51487;52.266;10.542;2023-04-25T02:03:27;9.75;;;4.57;;
64959;SDS011;51487;52.266;10.542;2023-04-25T02:05:52;11.10;;;4.72;;
64959;SDS011;51487;52.266;10.542;2023-04-25T02:08:18;8.65;;;4.57;;
64959;SDS011;51487;52.266;10.542;2023-04-25T02:10:43;10.65;;;4.43;;
64959;SDS011;51487;52.266;10.542;2023-04-25T02:13:09;9.82;;;4.25;;
64959;SDS011;51487;52.266;10.542;2023-04-25T02:15:35;11.65;;;4.35;;
64959;SDS011;51487;52.266;10.542;2023-04-25T02:18:01;8.85;;;4.38;;
64959;SDS011;51487;52.266;10.542;2023-04-25T02:20:27;7.80;;;5.18;;
64959;SDS011;51487;52.266;10.542;2023-04-25T02:22:55;11.23;;;4.82;;
64959;SDS011;51487;52.266;10.542;2023-04-25T02:25:21;7.47;;;4.22;;
64959;SDS011;51487;52.266;10.542;2023-04-25T02:27:47;9.50;;;4.88;;
64959;SDS011;51487;52.266;10.542;2023-04-25T02:30:13;10.10;;;4.50;;
64959;SDS011;51487;52.266;10.542;2023-04-25T02:32:39;11.15;;;4.45;;
64959;SDS011;51487;52.266;10.542;2023-04-25T02:35:06;12.40;;;4.63;;
64959;SDS011;51487;52.266;10.542;2023-04-25T02:37:33;10.43;;;4.55;;
64959;SDS011;51487;52.266;10.542;2023-04-25T02:40:03;11.32;;;4.57;;
64959;SDS011;51487;52.266;10.542;2023-04-25T02:42:30;11.63;;;4.60;;
64959;SDS011;51487;52.266;10.542;2023-04-25T02:44:56;10.63;;;4.80;;
64959;SDS011;51487;52.266;10.542;2023-04-25T02:47:21;8.05;;;4.80;;
64959;SDS011;51487;52.266;10.542;2023-04-25T02:49:47;6.50;;;4.40;;
64959;SDS011;51487;52.266;10.542;2023-04-25T02:52:13;10.00;;;4.72;;
64959;SDS011;51487;52.266;10.542;2023-04-25T02:54:39;8.02;;;4.70;;
64959;SDS011;51487;52.266;10.542;2023-04-25T02:57:05;11.25;;;5.18;;
64959;SDS011;51487;52.266;10.542;2023-04-25T02:59:31;10.55;;;5.03;;
64959;SDS011;51487;52.266;10.542;2023-04-25T03:01:58;7.53;;;5.00;;
64959;SDS011;51487;52.266;10.542;2023-04-25T03:04:24;8.85;;;5.32;;
64959;SDS011;51487;52.266;10.542;2023-04-25T03:06:50;12.93;;;5.30;;
64959;SDS011;51487;52.266;10.542;2023-04-25T03:09:16;11.20;;;6.25;;
64959;SDS011;51487;52.266;10.542;2023-04-25T03:11:43;11.13;;;6.30;;
64959;SDS011;51487;52.266;10.542;2023-04-25T03:14:10;14.20;;;5.45;;
64959;SDS011;51487;52.266;10.542;2023-04-25T03:16:36;10.07;;;5.00;;
64959;SDS011;51487;52.266;10.542;2023-04-25T03:19:02;9.32;;;4.93;;
64959;SDS011;51487;52.266;10.542;2023-04-25T03:21:29;11.57;;;5.75;;
64959;SDS011;51487;52.266;10.542;2023-04-25T03:23:56;11.00;;;5.38;;
64959;SDS011;51487;52.266;10.542;2023-04-25T03:26:22;10.65;;;5.65;;
64959;SDS011;51487;52.266;10.542;2023-04-25T03:28:48;11.02;;;5.95;;
64959;SDS011;51487;52.266;10.542;2023-04-25T03:31:13;11.57;;;5.90;;
64959;SDS011;51487;52.266;10.542;2023-04-25T03:33:39;10.40;;;5.75;;
64959;SDS011;51487;52.266;10.542;2023-04-25T03:36:05;11.32;;;5.53;;
64959;SDS011;51487;52.266;10.542;2023-04-25T03:38:31;10.00;;;5.70;;
64959;SDS011;51487;52.266;10.542;2023-04-25T03:40:57;8.23;;;5.68;;
64959;SDS011;51487;52.266;10.542;2023-04-25T03:43:22;12.38;;;5.55;;
64959;SDS011;51487;52.266;10.542;2023-04-25T03:45:48;16.42;;;5.95;;
64959;SDS011;51487;52.266;10.542;2023-04-25T03:48:14;13.00;;;5.53;;
64959;SDS011;51487;52.266;10.542;2023-04-25T03:50:39;10.40;;;5.35;;
64959;SDS011;51487;52.266;10.542;2023-04-25T03:53:05;7.82;;;5.18;;
64959;SDS011;51487;52.266;10.542;2023-04-25T03:55:30;15.43;;;6.10;;
64959;SDS011;51487;52.266;10.542;2023-04-25T03:57:57;11.30;;;4.53;;
64959;SDS011;51487;52.266;10.542;2023-04-25T04:00:23;10.57;;;4.22;;
64959;SDS011;51487;52.266;10.542;2023-04-25T04:02:49;10.77;;;3.60;;
64959;SDS011;51487;52.266;10.542;2023-04-25T04:05:15;14.30;;;4.53;;
64959;SDS011;51487;52.266;10.542;2023-04-25T04:07:41;12.98;;;4.65;;
64959;SDS011;51487;52.266;10.542;2023-04-25T04:10:08;13.23;;;3.47;;
64959;SDS011;51487;52.266;10.542;2023-04-25T04:12:37;8.77;;;3.78;;
64959;SDS011;51487;52.266;10.542;2023-04-25T04:15:06;11.13;;;3.53;;
64959;SDS011;51487;52.266;10.542;2023-04-25T04:17:32;10.07;;;3.20;;
64959;SDS011;51487;52.266;10.542;2023-04-25T04:19:59;18.15;;;3.63;;
64959;SDS011;51487;52.266;10.542;2023-04-25T04:22:25;15.18;;;4.70;;
64959;SDS011;51487;52.266;10.542;2023-04-25T04:24:50;10.95;;;3.55;;
64959;SDS011;51487;52.266;10.542;2023-04-25T04:27:19;11.70;;;3.72;;
64959;SDS011;51487;52.266;10.542;2023-04-25T04:29:46;18.58;;;4.45;;
64959;SDS011;51487;52.266;10.542;2023-04-25T04:32:12;14.27;;;3.50;;
64959;SDS011;51487;52.266;10.542;2023-04-25T04:34:39;9.95;;;3.75;;
64959;SDS011;51487;52.266;10.542;2023-04-25T04:37:06;12.30;;;3.90;;
64959;SDS011;51487;52.266;10.542;2023-04-25T04:39:32;14.25;;;4.30;;
64959;SDS011;51487;52.266;10.542;2023-04-25T04:41:59;17.13;;;4.47;;
64959;SDS011;51487;52.266;10.542;2023-04-25T04:44:29;14.00;;;3.70;;
64959;SDS011;51487;52.266;10.542;2023-04-25T04:46:59;14.13;;;3.70;;
64959;SDS011;51487;52.266;10.542;2023-04-25T04:49:25;14.73;;;4.22;;
64959;SDS011;51487;52.266;10.542;2023-04-25T04:51:51;13.82;;;4.10;;
64959;SDS011;51487;52.266;10.542;2023-04-25T04:54:17;17.33;;;4.70;;
64959;SDS011;51487;52.266;10.542;2023-04-25T04:56:42;14.65;;;3.67;;
64959;SDS011;51487;52.266;10.542;2023-04-25T04:59:08;14.65;;;4.15;;
64959;SDS011;51487;52.266;10.542;2023-04-25T05:01:34;21.45;;;4.65;;
64959;SDS011;51487;52.266;10.542;2023-04-25T05:04:02;18.30;;;4.07;;
64959;SDS011;51487;52.266;10.542;2023-04-25T05:06:29;13.68;;;3.53;;
64959;SDS011;51487;52.266;10.542;2023-04-25T05:08:56;15.43;;;4.68;;
64959;SDS011;51487;52.266;10.542;2023-04-25T05:11:22;17.92;;;4.65;;
64959;SDS011;51487;52.266;10.542;2023-04-25T05:13:51;17.85;;;3.90;;
64959;SDS011;51487;52.266;10.542;2023-04-25T05:16:17;16.05;;;4.13;;
64959;SDS011;51487;52.266;10.542;2023-04-25T05:18:43;18.75;;;5.00;;
64959;SDS011;51487;52.266;10.542;2023-04-25T05:21:08;10.88;;;3.70;;
64959;SDS011;51487;52.266;10.542;2023-04-25T05:23:34;17.42;;;3.70;;
64959;SDS011;51487;52.266;10.542;2023-04-25T05:26:00;19.05;;;3.92;;
64959;SDS011;51487;52.266;10.542;2023-04-25T05:28:25;17.05;;;4.15;;
64959;SDS011;51487;52.266;10.542;2023-04-25T05:30:51;16.48;;;3.45;;
64959;SDS011;51487;52.266;10.542;2023-04-25T05:33:17;22.65;;;3.88;;
64959;SDS011;51487;52.266;10.542;2023-04-25T05:35:42;18.73;;;4.35;;
64959;SDS011;51487;52.266;10.542;2023-04-25T05:38:08;13.30;;;4.15;;
64959;SDS011;51487;52.266;10.542;2023-04-25T05:40:34;15.45;;;4.68;;
64959;SDS011;51487;52.266;10.542;2023-04-25T05:42:59;12.98;;;4.00;;
64959;SDS011;51487;52.266;10.542;2023-04-25T05:45:25;16.58;;;4.32;;
64959;SDS011;51487;52.266;10.542;2023-04-25T05:47:51;14.85;;;4.03;;
64959;SDS011;51487;52.266;10.542;2023-04-25T05:50:16;18.80;;;3.65;;
64959;SDS011;51487;52.266;10.542;2023-04-25T05:52:42;16.40;;;3.97;;
64959;SDS011;51487;52.266;10.542;2023-04-25T05:55:07;20.38;;;3.85;;
64959;SDS011;51487;52.266;10.542;2023-04-25T05:57:33;14.55;;;3.25;;
64959;SDS011;51487;52.266;10.542;2023-04-25T05:59:59;16.20;;;3.50;;
64959;SDS011;51487;52.266;10.542;2023-04-25T06:02:25;13.50;;;3.60;;
64959;SDS011;51487;52.266;10.542;2023-04-25T06:04:51;14.32;;;3.20;;
64959;SDS011;51487;52.266;10.542;2023-04-25T06:07:17;19.70;;;4.13;;
64959;SDS011;51487;52.266;10.542;2023-04-25T06:09:44;16.83;;;5.03;;
64959;SDS011;51487;52.266;10.542;2023-04-25T06:12:10;20.58;;;4.03;;
64959;SDS011;51487;52.266;10.542;2023-04-25T06:14:36;14.27;;;3.38;;
64959;SDS011;51487;52.266;10.542;2023-04-25T06:17:02;15.05;;;3.88;;
64959;SDS011;51487;52.266;10.542;2023-04-25T06:19:33;12.05;;;3.17;;
64959;SDS011;51487;52.266;10.542;2023-04-25T06:22:00;16.77;;;4.20;;
64959;SDS011;51487;52.266;10.542;2023-04-25T06:24:26;18.85;;;4.05;;
64959;SDS011;51487;52.266;10.542;2023-04-25T06:26:52;17.75;;;3.78;;
64959;SDS011;51487;52.266;10.542;2023-04-25T06:29:18;15.38;;;3.15;;
64959;SDS011;51487;52.266;10.542;2023-04-25T06:31:44;13.68;;;3.13;;
64959;SDS011;51487;52.266;10.542;2023-04-25T06:34:09;12.77;;;3.72;;
64959;SDS011;51487;52.266;10.542;2023-04-25T06:36:35;16.50;;;3.35;;
64959;SDS011;51487;52.266;10.542;2023-04-25T06:39:01;11.60;;;3.83;;
64959;SDS011;51487;52.266;10.542;2023-04-25T06:41:27;10.73;;;2.90;;
64959;SDS011;51487;52.266;10.542;2023-04-25T06:43:52;14.30;;;3.88;;
64959;SDS011;51487;52.266;10.542;2023-04-25T06:46:18;16.58;;;3.28;;
64959;SDS011;51487;52.266;10.542;2023-04-25T06:48:43;20.15;;;3.20;;
64959;SDS011;51487;52.266;10.542;2023-04-25T06:51:09;11.30;;;3.55;;
64959;SDS011;51487;52.266;10.542;2023-04-25T06:53:35;11.32;;;3.30;;
64959;SDS011;51487;52.266;10.542;2023-04-25T06:56:01;14.45;;;3.60;;
64959;SDS011;51487;52.266;10.542;2023-04-25T06:58:26;11.90;;;3.45;;
64959;SDS011;51487;52.266;10.542;2023-04-25T07:00:52;23.55;;;4.55;;
64959;SDS011;51487;52.266;10.542;2023-04-25T07:03:17;15.68;;;3.30;;
64959;SDS011;51487;52.266;10.542;2023-04-25T07:05:43;15.60;;;3.10;;
64959;SDS011;51487;52.266;10.542;2023-04-25T07:08:10;13.30;;;3.25;;
64959;SDS011;51487;52.266;10.542;2023-04-25T07:10:36;11.75;;;2.70;;
64959;SDS011;51487;52.266;10.542;2023-04-25T07:13:01;14.18;;;2.95;;
64959;SDS011;51487;52.266;10.542;2023-04-25T07:15:27;12.40;;;2.63;;
64959;SDS011;51487;52.266;10.542;2023-04-25T07:17:52;11.23;;;2.75;;
64959;SDS011;51487;52.266;10.542;2023-04-25T07:20:18;8.85;;;2.50;;
64959;SDS011;51487;52.266;10.542;2023-04-25T07:22:43;10.00;;;3.13;;
64959;SDS011;51487;52.266;10.542;2023-04-25T07:25:09;8.10;;;2.40;;
64959;SDS011;51487;52.266;10.542;2023-04-25T07:27:35;10.43;;;2.10;;
64959;SDS011;51487;52.266;10.542;2023-04-25T07:30:00;10.70;;;2.70;;
64959;SDS011;51487;52.266;10.542;2023-04-25T07:32:26;7.72;;;2.72;;
64959;SDS011;51487;52.266;10.542;2023-04-25T07:34:51;9.30;;;2.90;;
64959;SDS011;51487;52.266;10.542;2023-04-25T07:37:17;10.07;;;2.70;;
64959;SDS011;51487;52.266;10.542;2023-04-25T07:39:43;8.77;;;2.45;;
64959;SDS011;51487;52.266;10.542;2023-04-25T07:42:11;6.07;;;1.95;;
64959;SDS011;51487;52.266;10.542;2023-04-25T07:44:37;7.43;;;2.17;;
64959;SDS011;51487;52.266;10.542;2023-04-25T07:47:07;6.95;;;1.95;;
64959;SDS011;51487;52.266;10.542;2023-04-25T07:49:34;8.57;;;2.40;;
64959;SDS011;51487;52.266;10.542;2023-04-25T07:52:01;8.80;;;2.55;;
64959;SDS011;51487;52.266;10.542;2023-04-25T07:54:29;4.65;;;2.30;;
64959;SDS011;51487;52.266;10.542;2023-04-25T07:56:55;9.30;;;2.40;;
64959;SDS011;51487;52.266;10.542;2023-04-25T07:59:21;11.13;;;2.38;;
64959;SDS011;51487;52.266;10.542;2023-04-25T08:01:47;6.55;;;2.10;;
64959;SDS011;51487;52.266;10.542;2023-04-25T08:04:13;8.90;;;2.33;;
64959;SDS011;51487;52.266;10.542;2023-04-25T08:06:39;6.15;;;2.53;;
64959;SDS011;51487;52.266;10.542;2023-04-25T08:09:05;11.48;;;2.78;;
64959;SDS011;51487;52.266;10.542;2023-04-25T08:11:31;7.43;;;2.45;;
64959;SDS011;51487;52.266;10.542;2023-04-25T08:13:57;7.15;;;3.20;;
64959;SDS011;51487;52.266;10.542;2023-04-25T08:16:22;10.32;;;2.35;;
64959;SDS011;51487;52.266;10.542;2023-04-25T08:18:48;10.43;;;2.50;;
64959;SDS011;51487;52.266;10.542;2023-04-25T08:21:15;8.88;;;2.60;;
64959;SDS011;51487;52.266;10.542;2023-04-25T08:23:41;10.80;;;3.20;;
64959;SDS011;51487;52.266;10.542;2023-04-25T08:26:06;10.20;;;2.88;;
64959;SDS011;51487;52.266;10.542;2023-04-25T08:28:32;7.43;;;2.55;;
64959;SDS011;51487;52.266;10.542;2023-04-25T08:30:57;12.75;;;2.63;;
64959;SDS011;51487;52.266;10.542;2023-04-25T08:33:23;10.38;;;2.47;;
64959;SDS011;51487;52.266;10.542;2023-04-25T08:35:48;11.43;;;2.75;;
64959;SDS011;51487;52.266;10.542;2023-04-25T08:38:14;12.35;;;2.85;;
64959;SDS011;51487;52.266;10.542;2023-04-25T08:40:40;13.93;;;3.40;;
64959;SDS011;51487;52.266;10.542;2023-04-25T08:43:09;10.63;;;3.10;;
64959;SDS011;51487;52.266;10.542;2023-04-25T08:45:40;8.85;;;2.88;;
64959;SDS011;51487;52.266;10.542;2023-04-25T08:48:12;7.25;;;2.85;;
64959;SDS011;51487;52.266;10.542;2023-04-25T08:50:51;9.68;;;2.90;;
64959;SDS011;51487;52.266;10.542;2023-04-25T08:53:22;16.40;;;3.72;;
64959;SDS011;51487;52.266;10.542;2023-04-25T08:55:56;14.10;;;3.55;;
64959;SDS011;51487;52.266;10.542;2023-04-25T08:58:24;11.27;;;3.00;;
64959;SDS011;51487;52.266;10.542;2023-04-25T09:00:50;11.02;;;2.92;;
64959;SDS011;51487;52.266;10.542;2023-04-25T09:03:17;7.85;;;2.40;;
64959;SDS011;51487;52.266;10.542;2023-04-25T09:05:43;7.70;;;2.17;;
64959;SDS011;51487;52.266;10.542;2023-04-25T09:08:09;11.50;;;2.50;;
64959;SDS011;51487;52.266;10.542;2023-04-25T09:10:35;7.35;;;2.30;;
64959;SDS011;51487;52.266;10.542;2023-04-25T09:13:03;7.18;;;2.25;;
64959;SDS011;51487;52.266;10.542;2023-04-25T09:15:32;10.55;;;2.33;;
64959;SDS011;51487;52.266;10.542;2023-04-25T09:17:58;8.05;;;2.47;;
64959;SDS011;51487;52.266;10.542;2023-04-25T09:20:24;9.30;;;2.60;;
64959;SDS011;51487;52.266;10.542;2023-04-25T09:23:03;10.63;;;2.20;;
64959;SDS011;51487;52.266;10.542;2023-04-25T09:25:35;9.00;;;2.20;;
64959;SDS011;51487;52.266;10.542;2023-04-25T09:28:04;8.40;;;2.88;;
64959;SDS011;51487;52.266;10.542;2023-04-25T09:30:32;8.73;;;2.08;;
64959;SDS011;51487;52.266;10.542;2023-04-25T09:33:04;6.63;;;2.28;;
64959;SDS011;51487;52.266;10.542;2023-04-25T09:35:39;7.00;;;2.17;;
64959;SDS011;51487;52.266;10.542;2023-04-25T09:38:10;6.20;;;2.00;;
64959;SDS011;51487;52.266;10.542;2023-04-25T09:40:42;6.53;;;2.03;;
64959;SDS011;51487;52.266;10.542;2023-04-25T09:43:19;10.25;;;2.50;;
64959;SDS011;51487;52.266;10.542;2023-04-25T09:45:49;9.48;;;2.20;;
64959;SDS011;51487;52.266;10.542;2023-04-25T09:48:19;4.28;;;2.08;;
64959;SDS011;51487;52.266;10.542;2023-04-25T09:56:08;6.18;;;2.20;;
64959;SDS011;51487;52.266;10.542;2023-04-25T09:58:37;6.07;;;2.05;;
64959;SDS011;51487;52.266;10.542;2023-04-25T10:01:05;9.15;;;2.45;;
64959;SDS011;51487;52.266;10.542;2023-04-25T10:03:34;10.02;;;2.42;;
64959;SDS011;51487;52.266;10.542;2023-04-25T10:06:07;8.45;;;2.50;;
64959;SDS011;51487;52.266;10.542;2023-04-25T10:08:46;9.10;;;2.47;;
64959;SDS011;51487;52.266;10.542;2023-04-25T10:11:18;7.80;;;2.28;;
64959;SDS011;51487;52.266;10.542;2023-04-25T10:13:46;6.20;;;2.55;;
64959;SDS011;51487;52.266;10.542;2023-04-25T10:16:12;7.20;;;2.10;;
64959;SDS011;51487;52.266;10.542;2023-04-25T10:18:38;6.13;;;2.15;;
64959;SDS011;51487;52.266;10.542;2023-04-25T10:21:04;5.78;;;1.92;;
64959;SDS011;51487;52.266;10.542;2023-04-25T10:23:31;8.70;;;2.10;;
64959;SDS011;51487;52.266;10.542;2023-04-25T10:25:59;9.00;;;2.28;;
64959;SDS011;51487;52.266;10.542;2023-04-25T10:28:26;8.35;;;2.03;;
64959;SDS011;51487;52.266;10.542;2023-04-25T10:33:39;7.95;;;2.50;;
64959;SDS011;51487;52.266;10.542;2023-04-25T10:36:11;5.88;;;2.10;;
64959;SDS011;51487;52.266;10.542;2023-04-25T10:38:43;6.53;;;2.28;;
64959;SDS011;51487;52.266;10.542;2023-04-25T10:41:12;9.75;;;2.42;;
64959;SDS011;51487;52.266;10.542;2023-04-25T10:43:40;9.20;;;2.95;;
64959;SDS011;51487;52.266;10.542;2023-04-25T10:48:53;7.93;;;1.77;;
64959;SDS011;51487;52.266;10.542;2023-04-25T10:51:29;4.40;;;1.70;;
64959;SDS011;51487;52.266;10.542;2023-04-25T11:04:05;3.30;;;1.60;;
64959;SDS011;51487;52.266;10.542;2023-04-25T11:09:36;3.10;;;1.90;;
64959;SDS011;51487;52.266;10.542;2023-04-25T11:12:06;6.43;;;2.00;;
64959;SDS011;51487;52.266;10.542;2023-04-25T11:14:34;8.38;;;2.05;;
64959;SDS011;51487;52.266;10.542;2023-04-25T11:17:00;6.50;;;1.98;;
64959;SDS011;51487;52.266;10.542;2023-04-25T11:19:27;5.25;;;2.03;;
64959;SDS011;51487;52.266;10.542;2023-04-25T11:22:01;7.75;;;1.88;;
64959;SDS011;51487;52.266;10.542;2023-04-25T11:24:28;4.28;;;1.67;;
64959;SDS011;51487;52.266;10.542;2023-04-25T11:26:56;4.97;;;1.90;;
64959;SDS011;51487;52.266;10.542;2023-04-25T11:29:26;6.15;;;1.70;;
64959;SDS011;51487;52.266;10.542;2023-04-25T11:31:52;4.68;;;1.77;;
64959;SDS011;51487;52.266;10.542;2023-04-25T11:34:22;4.85;;;1.70;;
64959;SDS011;51487;52.266;10.542;2023-04-25T11:36:50;4.80;;;1.90;;
64959;SDS011;51487;52.266;10.542;2023-04-25T11:39:18;6.05;;;1.95;;
64959;SDS011;51487;52.266;10.542;2023-04-25T11:41:44;5.55;;;1.77;;
64959;SDS011;51487;52.266;10.542;2023-04-25T11:44:10;4.60;;;1.70;;
64959;SDS011;51487;52.266;10.542;2023-04-25T11:46:36;6.15;;;1.85;;
64959;SDS011;51487;52.266;10.542;2023-04-25T11:49:02;5.47;;;2.15;;
64959;SDS011;51487;52.266;10.542;2023-04-25T11:51:29;7.28;;;2.08;;
64959;SDS011;51487;52.266;10.542;2023-04-25T11:53:55;6.28;;;2.45;;
64959;SDS011;51487;52.266;10.542;2023-04-25T11:56:21;5.63;;;2.25;;
64959;SDS011;51487;52.266;10.542;2023-04-25T11:58:54;5.65;;;1.95;;
64959;SDS011;51487;52.266;10.542;2023-04-25T12:01:39;7.45;;;1.70;;
64959;SDS011;51487;52.266;10.542;2023-04-25T12:04:13;8.18;;;2.80;;
64959;SDS011;51487;52.266;10.542;2023-04-25T12:06:44;5.63;;;2.00;;
64959;SDS011;51487;52.266;10.542;2023-04-25T12:09:13;4.25;;;1.75;;
64959;SDS011;51487;52.266;10.542;2023-04-25T12:11:41;5.78;;;1.90;;
64959;SDS011;51487;52.266;10.542;2023-04-25T12:14:25;8.48;;;2.10;;
64959;SDS011;51487;52.266;10.542;2023-04-25T12:16:52;4.57;;;1.70;;
64959;SDS011;51487;52.266;10.542;2023-04-25T12:19:22;6.07;;;1.92;;
64959;SDS011;51487;52.266;10.542;2023-04-25T12:21:48;4.03;;;1.60;;
64959;SDS011;51487;52.266;10.542;2023-04-25T12:24:15;3.30;;;1.45;;
64959;SDS011;51487;52.266;10.542;2023-04-25T12:27:00;3.70;;;1.50;;
64959;SDS011;51487;52.266;10.542;2023-04-25T12:29:33;3.55;;;1.50;;
64959;SDS011;51487;52.266;10.542;2023-04-25T12:31:59;4.97;;;1.70;;
64959;SDS011;51487;52.266;10.542;2023-04-25T12:34:27;5.10;;;1.60;;
64959;SDS011;51487;52.266;10.542;2023-04-25T12:36:53;2.60;;;2.20;;
64959;SDS011;51487;52.266;10.542;2023-04-25T12:39:23;3.70;;;1.33;;
64959;SDS011;51487;52.266;10.542;2023-04-25T12:41:50;2.97;;;1.30;;
64959;SDS011;51487;52.266;10.542;2023-04-25T12:44:19;7.45;;;1.70;;
64959;SDS011;51487;52.266;10.542;2023-04-25T12:46:46;3.53;;;1.70;;
64959;SDS011;51487;52.266;10.542;2023-04-25T12:49:12;5.40;;;1.70;;
64959;SDS011;51487;52.266;10.542;2023-04-25T12:51:38;7.10;;;1.58;;
64959;SDS011;51487;52.266;10.542;2023-04-25T12:54:04;3.25;;;1.40;;
64959;SDS011;51487;52.266;10.542;2023-04-25T12:56:32;4.72;;;1.60;;
64959;SDS011;51487;52.266;10.542;2023-04-25T12:58:57;3.83;;;1.50;;
64959;SDS011;51487;52.266;10.542;2023-04-25T13:01:24;3.67;;;1.50;;
64959;SDS011;51487;52.266;10.542;2023-04-25T13:03:51;3.00;;;1.70;;
64959;SDS011;51487;52.266;10.542;2023-04-25T13:06:18;8.30;;;1.50;;
64959;SDS011;51487;52.266;10.542;2023-04-25T13:08:45;3.28;;;1.40;;
64959;SDS011;51487;52.266;10.542;2023-04-25T13:11:11;8.13;;;2.78;;
64959;SDS011;51487;52.266;10.542;2023-04-25T13:13:37;5.18;;;1.75;;
64959;SDS011;51487;52.266;10.542;2023-04-25T13:16:04;5.35;;;1.73;;
64959;SDS011;51487;52.266;10.542;2023-04-25T13:18:31;4.00;;;1.90;;
64959;SDS011;51487;52.266;10.542;2023-04-25T13:20:57;4.72;;;1.80;;
64959;SDS011;51487;52.266;10.542;2023-04-25T13:23:24;2.00;;;1.45;;
64959;SDS011;51487;52.266;10.542;2023-04-25T13:25:52;3.72;;;1.65;;
64959;SDS011;51487;52.266;10.542;2023-04-25T13:28:19;5.00;;;1.85;;
64959;SDS011;51487;52.266;10.542;2023-04-25T13:30:44;4.85;;;1.60;;
64959;SDS011;51487;52.266;10.542;2023-04-25T13:33:10;2.10;;;1.40;;
64959;SDS011;51487;52.266;10.542;2023-04-25T13:35:36;4.70;;;2.03;;
64959;SDS011;51487;52.266;10.542;2023-04-25T13:38:03;8.07;;;2.05;;
64959;SDS011;51487;52.266;10.542;2023-04-25T13:40:29;4.63;;;1.80;;
64959;SDS011;51487;52.266;10.542;2023-04-25T13:42:55;3.90;;;1.65;;
64959;SDS011;51487;52.266;10.542;2023-04-25T13:45:21;3.05;;;1.60;;
64959;SDS011;51487;52.266;10.542;2023-04-25T13:47:47;5.68;;;2.28;;
64959;SDS011;51487;52.266;10.542;2023-04-25T13:50:13;4.20;;;1.50;;
64959;SDS011;51487;52.266;10.542;2023-04-25T13:52:39;3.00;;;1.45;;
64959;SDS011;51487;52.266;10.542;2023-04-25T13:55:06;4.75;;;1.50;;
64959;SDS011;51487;52.266;10.542;2023-04-25T13:57:33;4.45;;;1.45;;
64959;SDS011;51487;52.266;10.542;2023-04-25T14:00:00;6.50;;;1.38;;
64959;SDS011;51487;52.266;10.542;2023-04-25T14:02:31;4.68;;;1.40;;
64959;SDS011;51487;52.266;10.542;2023-04-25T14:04:57;2.78;;;1.20;;
64959;SDS011;51487;52.266;10.542;2023-04-25T14:07:22;4.10;;;1.30;;
64959;SDS011;51487;52.266;10.542;2023-04-25T14:09:48;3.88;;;1.45;;
64959;SDS011;51487;52.266;10.542;2023-04-25T14:12:15;2.38;;;1.38;;
64959;SDS011;51487;52.266;10.542;2023-04-25T14:14:41;5.22;;;1.42;;
64959;SDS011;51487;52.266;10.542;2023-04-25T14:17:07;1.42;;;0.98;;
64959;SDS011;51487;52.266;10.542;2023-04-25T14:19:33;3.65;;;1.38;;
64959;SDS011;51487;52.266;10.542;2023-04-25T14:21:59;3.60;;;1.70;;
64959;SDS011;51487;52.266;10.542;2023-04-25T14:24:25;5.65;;;1.45;;
64959;SDS011;51487;52.266;10.542;2023-04-25T14:26:50;3.30;;;1.25;;
64959;SDS011;51487;52.266;10.542;2023-04-25T14:29:16;3.83;;;1.50;;
64959;SDS011;51487;52.266;10.542;2023-04-25T14:31:41;4.13;;;1.80;;
64959;SDS011;51487;52.266;10.542;2023-04-25T14:34:07;2.65;;;1.40;;
64959;SDS011;51487;52.266;10.542;2023-04-25T14:36:33;5.93;;;1.40;;
64959;SDS011;51487;52.266;10.542;2023-04-25T14:38:59;5.22;;;1.50;;
64959;SDS011;51487;52.266;10.542;2023-04-25T14:41:25;4.38;;;1.67;;
64959;SDS011;51487;52.266;10.542;2023-04-25T14:43:51;4.78;;;1.50;;
64959;SDS011;51487;52.266;10.542;2023-04-25T14:46:18;8.30;;;1.42;;
64959;SDS011;51487;52.266;10.542;2023-04-25T14:48:45;3.67;;;1.60;;
64959;SDS011;51487;52.266;10.542;2023-04-25T14:51:11;5.65;;;1.58;;